createdAt,value
2018-10-11T00:00:13.803Z,16.80
2018-10-11T00:04:16.136Z,16.80
2018-10-11T00:08:18.441Z,17.30
2018-10-11T00:12:21.007Z,17.30
2018-10-11T00:16:23.367Z,16.80
2018-10-11T00:20:25.863Z,16.70
2018-10-11T00:24:28.268Z,15.70
2018-10-11T00:28:30.582Z,17.20
2018-10-11T00:32:34.768Z,17.80
2018-10-11T00:36:37.066Z,17.50
2018-10-11T00:40:40.927Z,17.40
2018-10-11T00:44:44.447Z,17.30
2018-10-11T00:48:46.746Z,17.30
2018-10-11T00:52:49.089Z,17.10
2018-10-11T00:56:51.346Z,17.10
2018-10-11T01:00:53.612Z,16.80
2018-10-11T01:04:55.916Z,16.70
2018-10-11T01:08:58.235Z,16.70
2018-10-11T01:13:00.587Z,16.20
2018-10-11T01:17:03.906Z,16.40
2018-10-11T01:21:15.660Z,16.80
2018-10-11T01:25:21.298Z,16.70
2018-10-11T01:29:23.657Z,16.20
2018-10-11T01:33:26.116Z,15.90
2018-10-11T01:37:28.413Z,15.80
2018-10-11T01:41:30.796Z,16.10
2018-10-11T01:45:33.849Z,16.20
2018-10-11T01:49:36.562Z,16.10
2018-10-11T01:53:39.033Z,16.00
2018-10-11T01:57:41.431Z,15.90
2018-10-11T02:01:43.711Z,15.90
2018-10-11T02:05:46.036Z,15.60
2018-10-11T02:09:48.342Z,15.50
2018-10-11T02:13:50.722Z,15.00
2018-10-11T02:17:53.123Z,15.00
2018-10-11T02:21:55.433Z,14.80
2018-10-11T02:25:57.708Z,15.70
2018-10-11T02:30:00.048Z,15.70
2018-10-11T02:34:02.471Z,15.80
2018-10-11T02:38:04.826Z,15.50
2018-10-11T02:42:07.240Z,15.10
2018-10-11T02:46:09.646Z,15.30
2018-10-11T02:50:12.027Z,15.20
2018-10-11T02:54:14.433Z,15.30
2018-10-11T02:58:28.261Z,15.00
2018-10-11T03:02:31.135Z,15.00
2018-10-11T03:06:34.794Z,15.20
2018-10-11T03:10:37.222Z,15.30
2018-10-11T03:14:39.606Z,15.60
2018-10-11T03:18:42.021Z,15.10
2018-10-11T03:22:44.370Z,15.10
2018-10-11T03:26:46.765Z,15.30
2018-10-11T03:30:49.112Z,15.40
2018-10-11T03:34:51.443Z,15.30
2018-10-11T03:38:53.796Z,15.70
2018-10-11T03:42:56.734Z,15.60
2018-10-11T03:46:59.081Z,15.50
2018-10-11T03:51:01.389Z,15.40
2018-10-11T03:55:03.752Z,15.20
2018-10-11T03:59:06.427Z,15.30
2018-10-11T04:03:08.732Z,15.10
2018-10-11T04:07:11.080Z,15.10
2018-10-11T04:11:13.346Z,15.10
2018-10-11T04:15:15.692Z,15.20
2018-10-11T04:19:18.071Z,15.40
2018-10-11T04:23:27.552Z,15.40
2018-10-11T04:27:29.910Z,15.10
2018-10-11T04:31:32.356Z,14.90
2018-10-11T04:35:34.674Z,15.20
2018-10-11T04:39:37.123Z,15.40
2018-10-11T04:43:39.424Z,15.40
2018-10-11T04:47:41.810Z,15.10
2018-10-11T04:51:44.245Z,15.40
2018-10-11T04:55:46.592Z,15.10
2018-10-11T04:59:48.925Z,14.90
2018-10-11T05:03:51.300Z,14.70
2018-10-11T05:07:53.628Z,14.70
2018-10-11T05:11:55.950Z,14.70
2018-10-11T05:15:58.300Z,15.40
2018-10-11T05:20:00.689Z,15.60
2018-10-11T05:24:03.066Z,15.50
2018-10-11T05:28:05.435Z,15.50
2018-10-11T05:32:07.846Z,15.70
2018-10-11T05:36:10.305Z,15.80
2018-10-11T05:40:12.689Z,16.20
2018-10-11T05:44:15.119Z,16.30
2018-10-11T05:48:17.456Z,16.20
2018-10-11T05:52:19.803Z,16.20
2018-10-11T05:56:23.474Z,15.10
2018-10-11T06:00:25.815Z,15.70
2018-10-11T06:04:28.224Z,16.50
2018-10-11T06:08:30.585Z,16.60
2018-10-11T06:12:32.948Z,16.60
2018-10-11T06:16:35.295Z,16.80
2018-10-11T06:20:37.695Z,16.80
2018-10-11T06:24:40.055Z,16.90
2018-10-11T06:28:42.973Z,17.00
2018-10-11T06:32:45.442Z,17.00
2018-10-11T06:36:47.875Z,17.20
2018-10-11T06:40:50.371Z,17.40
2018-10-11T06:44:53.474Z,17.70
2018-10-11T06:48:55.896Z,17.60
2018-10-11T06:52:58.552Z,17.60
2018-10-11T06:57:00.910Z,18.30
2018-10-11T07:01:03.306Z,18.60
2018-10-11T07:05:05.724Z,19.20
2018-10-11T07:09:08.383Z,18.60
2018-10-11T07:13:10.756Z,19.20
2018-10-11T07:17:13.114Z,19.80
2018-10-11T07:21:15.524Z,20.20
2018-10-11T07:25:17.898Z,19.50
2018-10-11T07:29:20.306Z,20.30
2018-10-11T07:33:22.618Z,19.40
2018-10-11T07:37:24.990Z,19.50
2018-10-11T07:41:27.415Z,19.20
2018-10-11T07:45:29.761Z,18.90
2018-10-11T07:49:32.150Z,19.40
2018-10-11T07:53:34.526Z,18.90
2018-10-11T07:57:36.869Z,18.80
2018-10-11T08:01:39.380Z,18.90
2018-10-11T08:05:41.649Z,19.40
2018-10-11T08:09:43.959Z,20.90
2018-10-11T08:13:46.328Z,21.50
2018-10-11T08:17:48.956Z,21.80
2018-10-11T08:21:51.019Z,21.80
2018-10-11T08:25:53.561Z,20.70
2018-10-11T08:29:55.845Z,20.60
2018-10-11T08:33:58.158Z,20.80
2018-10-11T08:38:00.672Z,20.30
2018-10-11T08:42:02.872Z,21.40
2018-10-11T08:46:05.473Z,20.00
2018-10-11T08:50:07.910Z,18.40
2018-10-11T08:54:16.015Z,19.30
2018-10-11T08:58:18.463Z,19.00
2018-10-11T09:02:20.750Z,19.90
2018-10-11T09:06:23.166Z,21.00
2018-10-11T09:10:37.861Z,21.30
2018-10-11T09:14:28.014Z,19.90
2018-10-11T09:18:30.380Z,20.60
2018-10-11T09:22:32.759Z,21.90
2018-10-11T09:26:35.102Z,21.10
2018-10-11T09:30:37.489Z,21.70
2018-10-11T09:34:41.268Z,21.60
2018-10-11T09:38:43.640Z,21.90
2018-10-11T09:42:46.041Z,22.20
2018-10-11T09:46:48.418Z,22.90
2018-10-11T09:50:50.784Z,22.80
2018-10-11T09:54:53.268Z,23.10
2018-10-11T09:58:55.650Z,23.10
2018-10-11T10:02:58.289Z,22.00
2018-10-11T10:07:00.734Z,23.20
2018-10-11T10:11:03.128Z,23.20
2018-10-11T10:15:05.657Z,23.60
2018-10-11T10:19:08.107Z,22.70
2018-10-11T10:23:10.493Z,21.70
2018-10-11T10:27:13.007Z,22.30
2018-10-11T10:31:15.302Z,23.30
2018-10-11T10:35:17.666Z,23.80
2018-10-11T10:39:20.248Z,24.10
2018-10-11T10:43:22.612Z,24.10
2018-10-11T10:47:24.957Z,24.80
2018-10-11T10:51:27.309Z,25.10
2018-10-11T10:55:29.663Z,25.60
2018-10-11T10:59:32.184Z,26.00
2018-10-11T11:03:34.537Z,26.70
2018-10-11T11:07:36.927Z,25.80
2018-10-11T11:11:39.637Z,26.20
2018-10-11T11:15:42.000Z,25.10
2018-10-11T11:19:44.354Z,25.40
2018-10-11T11:23:46.753Z,25.70
2018-10-11T11:27:49.322Z,25.40
2018-10-11T11:31:51.653Z,25.60
2018-10-11T11:35:54.004Z,23.80
2018-10-11T11:39:56.376Z,24.20
2018-10-11T11:43:58.659Z,23.30
2018-10-11T11:48:01.106Z,24.70
2018-10-11T11:52:03.525Z,25.50
2018-10-11T11:56:05.969Z,24.70
2018-10-11T12:00:08.379Z,25.40
2018-10-11T12:04:10.738Z,25.30
2018-10-11T12:08:13.133Z,25.50
2018-10-11T12:13:23.589Z,25.70
2018-10-11T12:17:25.943Z,26.10
2018-10-11T12:21:28.304Z,26.20
2018-10-11T12:25:31.151Z,25.70
2018-10-11T12:29:37.091Z,26.00
2018-10-11T12:33:39.517Z,26.60
2018-10-11T12:37:41.973Z,27.10
2018-10-11T12:41:44.298Z,26.50
2018-10-11T12:45:46.801Z,26.70
2018-10-11T12:49:49.486Z,26.30
2018-10-11T12:53:52.416Z,25.30
2018-10-11T12:57:54.863Z,23.60
2018-10-11T13:01:57.576Z,24.60
2018-10-11T13:06:00.074Z,25.60
2018-10-11T13:10:03.023Z,27.00
2018-10-11T13:14:05.558Z,27.50
2018-10-11T13:18:08.209Z,28.30
2018-10-11T13:22:10.604Z,28.50
2018-10-11T13:26:13.076Z,27.30
2018-10-11T13:30:15.428Z,27.00
2018-10-11T13:34:18.013Z,26.90
2018-10-11T13:38:20.427Z,27.50
2018-10-11T13:42:22.849Z,27.50
2018-10-11T13:46:25.430Z,27.60
2018-10-11T13:50:27.762Z,26.10
2018-10-11T13:54:30.666Z,27.00
2018-10-11T13:58:33.072Z,28.10
2018-10-11T14:02:35.983Z,27.70
2018-10-11T14:06:38.632Z,27.20
2018-10-11T14:10:41.331Z,26.40
2018-10-11T14:14:43.762Z,26.90
2018-10-11T14:18:46.366Z,24.90
2018-10-11T14:22:48.690Z,25.60
2018-10-11T14:26:51.507Z,27.20
2018-10-11T14:30:53.821Z,27.40
2018-10-11T14:34:56.212Z,26.60
2018-10-11T14:39:00.791Z,26.80
2018-10-11T14:43:03.689Z,27.10
2018-10-11T14:47:06.119Z,26.50
2018-10-11T14:51:09.134Z,26.30
2018-10-11T14:55:11.476Z,25.70
2018-10-11T14:59:13.854Z,25.50
2018-10-11T15:03:16.301Z,26.20
2018-10-11T15:07:18.899Z,26.20
2018-10-11T15:11:21.983Z,26.50
2018-10-11T15:15:24.529Z,26.60
2018-10-11T15:19:27.142Z,26.00
2018-10-11T15:23:29.659Z,26.50
2018-10-11T15:27:32.355Z,25.10
2018-10-11T15:31:34.785Z,23.40
2018-10-11T15:35:37.196Z,23.30
2018-10-11T15:39:39.681Z,23.30
2018-10-11T15:43:42.091Z,24.20
2018-10-11T15:47:44.471Z,24.10
2018-10-11T15:51:46.864Z,23.00
2018-10-11T15:55:49.235Z,22.90
2018-10-11T15:59:51.791Z,24.20
2018-10-11T16:03:54.310Z,24.50
2018-10-11T16:07:56.640Z,24.40
2018-10-11T16:11:59.201Z,23.60
2018-10-11T16:16:01.514Z,24.30
2018-10-11T16:20:04.152Z,24.70
2018-10-11T16:24:06.550Z,23.80
2018-10-11T16:28:08.939Z,24.40
2018-10-11T16:32:11.416Z,23.90
2018-10-11T16:36:13.759Z,24.40
2018-10-11T16:40:16.251Z,24.20
2018-10-11T16:44:18.617Z,24.20
2018-10-11T16:48:21.024Z,23.90
2018-10-11T16:52:23.386Z,23.60
2018-10-11T16:56:25.713Z,24.00
2018-10-11T17:00:28.093Z,23.70
2018-10-11T17:04:30.497Z,23.60
2018-10-11T17:08:32.904Z,23.40
2018-10-11T17:12:35.310Z,23.20
2018-10-11T17:16:37.683Z,22.80
2018-10-11T17:20:40.044Z,22.80
2018-10-11T17:24:42.416Z,23.00
2018-10-11T17:28:44.845Z,22.70
2018-10-11T17:32:47.359Z,23.20
2018-10-11T17:36:49.780Z,23.80
2018-10-11T17:40:52.246Z,23.80
2018-10-11T17:44:54.776Z,23.70
2018-10-11T17:48:57.246Z,23.50
2018-10-11T17:52:59.685Z,23.20
2018-10-11T17:57:02.061Z,23.00
2018-10-11T18:01:04.470Z,23.20
2018-10-11T18:05:06.958Z,22.90
2018-10-11T18:09:10.285Z,22.30
2018-10-11T18:13:12.656Z,23.30
2018-10-11T18:17:15.022Z,23.10
2018-10-11T18:21:17.485Z,22.00
2018-10-11T18:25:19.783Z,22.40
2018-10-11T18:29:22.255Z,22.70
2018-10-11T18:33:24.613Z,22.60
2018-10-11T18:37:26.966Z,22.80
2018-10-11T18:41:29.319Z,21.80
2018-10-11T18:45:31.682Z,22.70
2018-10-11T18:49:34.024Z,23.00
2018-10-11T18:53:36.613Z,22.20
2018-10-11T18:57:39.041Z,21.50
2018-10-11T19:01:41.740Z,22.00
2018-10-11T19:05:44.319Z,23.20
2018-10-11T19:09:46.662Z,22.50
2018-10-11T19:13:49.021Z,22.10
2018-10-11T19:17:51.362Z,22.30
2018-10-11T19:21:53.807Z,21.20
2018-10-11T19:25:56.255Z,22.20
2018-10-11T19:29:58.597Z,22.10
2018-10-11T19:34:00.984Z,23.60
2018-10-11T19:38:03.368Z,23.50
2018-10-11T19:42:05.731Z,23.40
2018-10-11T19:46:08.370Z,23.30
2018-10-11T19:50:10.749Z,23.60
2018-10-11T19:54:13.819Z,23.30
2018-10-11T19:58:16.295Z,23.40
2018-10-11T20:02:18.803Z,22.70
2018-10-11T20:06:21.255Z,22.00
2018-10-11T20:10:23.688Z,21.00
2018-10-11T20:14:25.995Z,20.40
2018-10-11T20:18:28.373Z,20.00
2018-10-11T20:22:30.715Z,21.00
2018-10-11T20:26:33.084Z,21.40
2018-10-11T20:30:35.547Z,20.70
2018-10-11T20:34:37.906Z,20.90
2018-10-11T20:38:40.261Z,20.70
2018-10-11T20:42:42.618Z,20.50
2018-10-11T20:46:44.980Z,22.20
2018-10-11T20:50:47.378Z,22.40
2018-10-11T20:54:49.727Z,23.60
2018-10-11T20:58:52.073Z,23.20
2018-10-11T21:02:54.455Z,22.50
2018-10-11T21:06:56.839Z,22.40
2018-10-11T21:10:59.182Z,23.30
2018-10-11T21:15:01.544Z,22.50
2018-10-11T21:19:04.008Z,22.70
2018-10-11T21:23:06.420Z,23.00
2018-10-11T21:27:08.807Z,23.00
2018-10-11T21:31:11.183Z,23.50
2018-10-11T21:35:13.545Z,23.40
2018-10-11T21:39:15.862Z,22.70
2018-10-11T21:43:18.153Z,22.00
2018-10-11T21:47:20.524Z,22.10
2018-10-11T21:51:22.872Z,20.40
2018-10-11T21:55:25.395Z,21.30
2018-10-11T21:59:27.742Z,22.60
2018-10-11T22:03:30.076Z,23.00
2018-10-11T22:07:32.504Z,23.00
2018-10-11T22:11:34.926Z,23.10
2018-10-11T22:15:37.336Z,21.30
2018-10-11T22:19:39.774Z,22.60
2018-10-11T22:23:42.848Z,22.00
2018-10-11T22:27:45.696Z,22.50
2018-10-11T22:31:57.582Z,23.00
2018-10-11T22:36:01.017Z,22.00
2018-10-11T22:40:03.699Z,21.70
2018-10-11T22:44:07.074Z,21.40
2018-10-11T22:48:10.014Z,21.50
2018-10-11T22:52:12.781Z,21.80
2018-10-11T22:56:19.875Z,22.20
2018-10-11T23:00:22.608Z,21.70
2018-10-11T23:04:25.202Z,22.40
2018-10-11T23:08:27.587Z,20.80
2018-10-11T23:12:30.107Z,20.00
2018-10-11T23:16:32.590Z,20.80
2018-10-11T23:20:34.930Z,21.10
2018-10-11T23:24:37.258Z,20.70
2018-10-11T23:28:40.106Z,21.00
2018-10-11T23:32:42.566Z,21.00
2018-10-11T23:36:44.882Z,21.40
2018-10-11T23:40:47.211Z,21.50
2018-10-11T23:44:49.577Z,20.90
2018-10-11T23:48:51.870Z,20.90
2018-10-11T23:52:54.231Z,21.60
2018-10-11T23:56:56.525Z,21.50
